createdAt,value
2022-10-06T00:00:22.292Z,133.86
2022-10-06T00:01:22.328Z,137.58
2022-10-06T00:02:22.256Z,137.69
2022-10-06T00:03:22.253Z,139.06
2022-10-06T00:04:22.233Z,140.57
2022-10-06T00:05:22.253Z,141.76
2022-10-06T00:06:22.189Z,141.88
2022-10-06T00:07:22.203Z,144.93
2022-10-06T00:08:22.188Z,148.52
2022-10-06T00:09:22.157Z,151.74
2022-10-06T00:10:22.193Z,152.70
2022-10-06T00:11:22.150Z,153.40
2022-10-06T00:12:22.148Z,154.67
2022-10-06T00:13:22.124Z,156.54
2022-10-06T00:14:22.125Z,156.98
2022-10-06T00:15:22.134Z,160.42
2022-10-06T00:16:22.230Z,161.81
2022-10-06T00:17:22.118Z,163.07
2022-10-06T00:18:22.106Z,164.83
2022-10-06T00:19:22.063Z,165.31
2022-10-06T00:20:22.061Z,166.13
2022-10-06T00:21:22.065Z,166.46
2022-10-06T00:22:22.024Z,166.46
2022-10-06T00:23:22.089Z,168.97
2022-10-06T00:24:22.004Z,171.21
2022-10-06T00:25:21.989Z,173.50
2022-10-06T00:26:22.012Z,176.79
2022-10-06T00:27:22.004Z,179.24
2022-10-06T00:28:22.033Z,181.76
2022-10-06T00:29:21.928Z,182.74
2022-10-06T00:30:21.954Z,182.55
2022-10-06T00:31:21.985Z,183.74
2022-10-06T00:32:21.898Z,184.15
2022-10-06T00:33:21.906Z,185.77
2022-10-06T00:34:21.894Z,186.60
2022-10-06T00:35:22.681Z,185.76
2022-10-06T00:36:21.918Z,185.14
2022-10-06T00:37:21.866Z,184.75
2022-10-06T00:38:21.826Z,184.75
2022-10-06T00:39:21.807Z,183.74
2022-10-06T00:40:21.851Z,183.94
2022-10-06T00:41:21.840Z,182.94
2022-10-06T00:42:21.809Z,182.55
2022-10-06T00:43:21.792Z,183.54
2022-10-06T00:44:21.777Z,181.76
2022-10-06T00:45:21.743Z,182.35
2022-10-06T00:46:21.889Z,181.76
2022-10-06T00:47:21.719Z,184.35
2022-10-06T00:48:21.739Z,183.54
2022-10-06T00:49:21.698Z,183.34
2022-10-06T00:50:21.718Z,183.54
2022-10-06T00:51:21.707Z,183.34
2022-10-06T00:52:21.670Z,183.54
2022-10-06T00:53:21.672Z,183.74
2022-10-06T00:54:21.651Z,183.34
2022-10-06T00:55:21.630Z,185.57
2022-10-06T00:56:21.655Z,185.55
2022-10-06T00:57:21.602Z,185.35
2022-10-06T00:58:21.604Z,185.98
2022-10-06T00:59:21.591Z,185.16
2022-10-06T01:00:21.571Z,184.96
2022-10-06T01:01:21.612Z,184.75
2022-10-06T01:02:21.659Z,183.34
2022-10-06T01:03:21.559Z,183.94
2022-10-06T01:04:21.519Z,182.55
2022-10-06T01:05:21.548Z,183.54
2022-10-06T01:06:21.508Z,185.36
2022-10-06T01:07:21.502Z,183.74
2022-10-06T01:08:21.515Z,184.15
2022-10-06T01:09:21.479Z,184.15
2022-10-06T01:10:21.484Z,180.59
2022-10-06T01:11:21.447Z,179.05
2022-10-06T01:12:21.471Z,176.60
2022-10-06T01:13:21.439Z,175.13
2022-10-06T01:14:21.424Z,174.04
2022-10-06T01:15:21.419Z,170.68
2022-10-06T01:16:21.458Z,168.80
2022-10-06T01:17:21.381Z,167.62
2022-10-06T01:18:21.394Z,165.97
2022-10-06T01:19:21.400Z,163.70
2022-10-06T01:20:21.364Z,163.54
2022-10-06T01:21:21.339Z,162.75
2022-10-06T01:22:21.365Z,163.54
2022-10-06T01:23:21.352Z,165.80
2022-10-06T01:24:21.313Z,168.63
2022-10-06T01:25:21.302Z,172.26
2022-10-06T01:26:21.280Z,176.79
2022-10-06T01:27:21.264Z,179.05
2022-10-06T01:28:21.275Z,180.59
2022-10-06T01:29:21.274Z,181.17
2022-10-06T01:30:21.247Z,183.34
2022-10-06T01:31:21.297Z,184.75
2022-10-06T01:32:21.216Z,185.77
2022-10-06T01:33:21.228Z,186.50
2022-10-06T01:34:21.184Z,187.77
2022-10-06T01:35:21.178Z,190.14
2022-10-06T01:36:21.158Z,192.58
2022-10-06T01:37:21.160Z,195.66
2022-10-06T01:38:21.183Z,198.36
2022-10-06T01:39:21.141Z,199.43
2022-10-06T01:40:21.149Z,200.40
2022-10-06T01:41:21.114Z,201.62
2022-10-06T01:42:21.101Z,202.61
2022-10-06T01:43:21.110Z,205.26
2022-10-06T01:44:21.098Z,208.75
2022-10-06T01:45:21.077Z,208.75
2022-10-06T01:46:21.119Z,210.35
2022-10-06T01:47:21.039Z,212.24
2022-10-06T01:48:21.036Z,214.16
2022-10-06T01:49:21.043Z,216.41
2022-10-06T01:50:21.032Z,216.55
2022-10-06T01:51:21.032Z,217.55
2022-10-06T01:52:20.976Z,217.12
2022-10-06T01:53:20.978Z,219.28
2022-10-06T01:54:20.986Z,219.86
2022-10-06T01:55:20.949Z,220.60
2022-10-06T01:56:20.938Z,220.60
2022-10-06T01:57:20.929Z,220.89
2022-10-06T01:58:20.959Z,221.18
2022-10-06T01:59:20.919Z,221.04
2022-10-06T02:00:20.926Z,221.48
2022-10-06T02:01:20.947Z,221.33
2022-10-06T02:02:20.888Z,221.63
2022-10-06T02:03:20.860Z,221.48
2022-10-06T02:04:20.910Z,222.68
2022-10-06T02:05:20.867Z,225.41
2022-10-06T02:06:20.879Z,227.74
2022-10-06T02:07:20.820Z,229.32
2022-10-06T02:08:20.800Z,230.60
2022-10-06T02:09:20.788Z,233.37
2022-10-06T02:10:20.810Z,233.20
2022-10-06T02:11:20.772Z,235.02
2022-10-06T02:12:20.768Z,236.88
2022-10-06T02:13:20.742Z,237.22
2022-10-06T02:14:20.753Z,236.71
2022-10-06T02:15:20.738Z,235.86
2022-10-06T02:16:20.829Z,237.05
2022-10-06T02:17:20.714Z,237.22
2022-10-06T02:18:20.691Z,236.37
2022-10-06T02:19:20.680Z,237.05
2022-10-06T02:20:20.670Z,235.53
2022-10-06T02:21:20.692Z,235.02
2022-10-06T02:22:20.663Z,234.19
2022-10-06T02:23:20.658Z,235.53
2022-10-06T02:24:20.657Z,235.19
2022-10-06T02:25:20.604Z,235.53
2022-10-06T02:26:20.611Z,234.86
2022-10-06T02:27:20.610Z,234.69
2022-10-06T02:28:20.624Z,232.87
2022-10-06T02:29:20.578Z,232.38
2022-10-06T02:30:20.565Z,232.22
2022-10-06T02:31:20.578Z,232.38
2022-10-06T02:32:20.555Z,232.22
2022-10-06T02:33:20.536Z,231.73
2022-10-06T02:34:20.537Z,232.05
2022-10-06T02:35:20.505Z,232.71
2022-10-06T02:36:20.484Z,233.04
2022-10-06T02:37:20.515Z,233.70
2022-10-06T02:38:20.455Z,233.37
2022-10-06T02:39:20.465Z,233.37
2022-10-06T02:40:20.433Z,232.54
2022-10-06T02:41:20.445Z,230.92
2022-10-06T02:42:20.417Z,230.28
2022-10-06T02:43:20.413Z,228.05
2022-10-06T02:44:20.408Z,226.33
2022-10-06T02:45:20.384Z,223.28
2022-10-06T02:46:20.432Z,222.53
2022-10-06T02:47:20.375Z,220.74
2022-10-06T02:48:20.358Z,220.15
2022-10-06T02:49:20.387Z,218.26
2022-10-06T02:50:20.327Z,217.26
2022-10-06T02:51:20.327Z,216.55
2022-10-06T02:52:20.335Z,214.16
2022-10-06T02:53:20.314Z,212.92
2022-10-06T02:54:20.300Z,211.56
2022-10-06T02:55:20.273Z,210.35
2022-10-06T02:56:20.268Z,208.36
2022-10-06T02:57:20.260Z,208.23
2022-10-06T02:58:20.248Z,206.02
2022-10-06T02:59:20.269Z,206.79
2022-10-06T03:00:20.236Z,205.38
2022-10-06T03:01:20.256Z,203.61
2022-10-06T03:02:20.340Z,203.24
2022-10-06T03:03:20.170Z,202.24
2022-10-06T03:04:20.185Z,201.26
2022-10-06T03:05:20.257Z,200.16
2022-10-06T03:06:20.139Z,198.12
2022-10-06T03:07:20.138Z,195.66
2022-10-06T03:08:20.138Z,192.58
2022-10-06T03:09:20.117Z,190.69
2022-10-06T03:10:20.098Z,190.58
2022-10-06T03:11:20.078Z,190.25
2022-10-06T03:12:20.069Z,189.60
2022-10-06T03:13:20.069Z,189.16
2022-10-06T03:14:22.037Z,189.82
2022-10-06T03:15:20.048Z,188.95
2022-10-06T03:16:20.112Z,188.41
2022-10-06T03:17:20.020Z,190.25
2022-10-06T03:18:20.001Z,190.47
2022-10-06T03:19:20.027Z,189.82
2022-10-06T03:20:19.973Z,189.92
2022-10-06T03:21:19.969Z,188.19
2022-10-06T03:22:19.963Z,188.95
2022-10-06T03:23:19.946Z,188.30
2022-10-06T03:24:19.952Z,186.81
2022-10-06T03:25:19.917Z,186.92
2022-10-06T03:26:19.909Z,187.34
2022-10-06T03:27:19.939Z,186.81
2022-10-06T03:28:19.935Z,186.08
2022-10-06T03:29:19.911Z,185.77
2022-10-06T03:30:19.881Z,185.36
2022-10-06T03:31:19.915Z,184.96
2022-10-06T03:32:19.829Z,183.54
2022-10-06T03:33:19.839Z,182.15
2022-10-06T03:34:19.838Z,180.78
2022-10-06T03:35:19.811Z,178.48
2022-10-06T03:36:19.792Z,177.16
2022-10-06T03:37:19.780Z,174.58
2022-10-06T03:38:19.773Z,176.60
2022-10-06T03:39:19.790Z,178.67
2022-10-06T03:40:19.742Z,180.59
2022-10-06T03:41:19.731Z,183.74
2022-10-06T03:42:19.722Z,186.18
2022-10-06T03:43:19.713Z,185.98
2022-10-06T03:44:19.722Z,184.96
2022-10-06T03:45:19.685Z,182.94
2022-10-06T03:46:19.742Z,180.39
2022-10-06T03:47:19.664Z,176.42
2022-10-06T03:48:19.654Z,174.77
2022-10-06T03:49:19.674Z,171.03
2022-10-06T03:50:19.643Z,168.80
2022-10-06T03:51:19.632Z,166.29
2022-10-06T03:52:25.039Z,165.15
2022-10-06T03:53:20.613Z,165.15
2022-10-06T03:54:19.593Z,166.96
2022-10-06T03:55:19.574Z,164.83
2022-10-06T03:56:19.568Z,164.67
2022-10-06T03:57:19.554Z,163.07
2022-10-06T03:58:19.556Z,160.88
2022-10-06T03:59:19.611Z,159.21
2022-10-06T04:00:19.526Z,157.42
2022-10-06T04:01:23.618Z,157.13
2022-10-06T04:02:20.523Z,157.86
2022-10-06T04:03:19.487Z,158.61
2022-10-06T04:04:19.475Z,158.01
2022-10-06T04:05:19.485Z,157.57
2022-10-06T04:06:19.456Z,157.27
2022-10-06T04:07:19.443Z,153.68
2022-10-06T04:08:19.418Z,151.60
2022-10-06T04:09:19.443Z,148.65
2022-10-06T04:10:19.433Z,144.31
2022-10-06T04:11:19.396Z,140.57
2022-10-06T04:12:19.374Z,136.69
2022-10-06T04:13:19.385Z,134.61
2022-10-06T04:14:19.471Z,128.63
2022-10-06T04:15:19.355Z,125.65
2022-10-06T04:16:19.406Z,120.35
2022-10-06T04:17:19.329Z,116.51
2022-10-06T04:18:19.305Z,112.76
2022-10-06T04:19:19.307Z,111.19
2022-10-06T04:20:19.315Z,109.81
2022-10-06T04:21:19.266Z,109.17
2022-10-06T04:22:19.266Z,107.50
2022-10-06T04:23:19.262Z,107.84
2022-10-06T04:24:19.237Z,109.74
2022-10-06T04:25:19.262Z,110.75
2022-10-06T04:26:19.219Z,110.83
2022-10-06T04:27:19.208Z,110.03
2022-10-06T04:28:19.234Z,108.68
2022-10-06T04:29:19.192Z,107.29
2022-10-06T04:30:19.180Z,105.47
2022-10-06T04:31:19.246Z,103.53
2022-10-06T04:32:19.155Z,101.83
2022-10-06T04:33:19.146Z,98.38
2022-10-06T04:34:19.144Z,96.68
2022-10-06T04:35:19.116Z,94.03
2022-10-06T04:36:19.130Z,93.38
2022-10-06T04:37:19.121Z,90.95
2022-10-06T04:38:19.089Z,89.50
2022-10-06T04:39:19.082Z,88.46
2022-10-06T04:40:19.062Z,88.28
2022-10-06T04:41:19.059Z,88.46
2022-10-06T04:42:19.063Z,88.28
2022-10-06T04:43:19.028Z,87.54
2022-10-06T04:44:19.025Z,86.02
2022-10-06T04:45:19.006Z,85.50
2022-10-06T04:46:41.408Z,83.96
2022-10-06T04:47:20.017Z,82.56
2022-10-06T04:48:18.971Z,81.83
2022-10-06T04:49:20.548Z,81.36
2022-10-06T04:50:18.932Z,80.73
2022-10-06T04:51:18.921Z,80.58
2022-10-06T04:52:18.934Z,81.04
2022-10-06T04:53:18.900Z,81.60
2022-10-06T04:54:18.915Z,81.04
2022-10-06T04:55:18.887Z,81.44
2022-10-06T04:56:18.865Z,80.81
2022-10-06T04:57:18.863Z,80.58
2022-10-06T04:58:18.855Z,77.60
2022-10-06T04:59:18.831Z,75.04
2022-10-06T05:00:18.817Z,72.83
2022-10-06T05:01:18.894Z,71.47
2022-10-06T05:02:18.822Z,69.92
2022-10-06T05:03:18.783Z,68.33
2022-10-06T05:04:18.790Z,66.60
2022-10-06T05:05:18.762Z,64.11
2022-10-06T05:06:18.753Z,63.96
2022-10-06T05:07:18.735Z,65.05
2022-10-06T05:08:18.722Z,65.92
2022-10-06T05:09:18.742Z,66.07
2022-10-06T05:10:18.709Z,67.61
2022-10-06T05:11:22.474Z,69.92
2022-10-06T05:12:19.678Z,71.65
2022-10-06T05:13:18.674Z,72.83
2022-10-06T05:14:18.652Z,71.83
2022-10-06T05:15:18.673Z,70.39
2022-10-06T05:16:18.694Z,69.06
2022-10-06T05:17:18.630Z,67.78
2022-10-06T05:18:18.616Z,66.44
2022-10-06T05:19:18.612Z,65.71
2022-10-06T05:20:18.603Z,64.16
2022-10-06T05:21:18.584Z,61.21
2022-10-06T05:22:18.569Z,58.78
2022-10-06T05:23:18.560Z,56.03
2022-10-06T05:24:18.548Z,54.02
2022-10-06T05:25:18.545Z,52.30
2022-10-06T05:26:18.552Z,50.30
2022-10-06T05:27:18.533Z,48.64
2022-10-06T05:28:18.524Z,47.87
2022-10-06T05:29:18.495Z,47.01
2022-10-06T05:30:18.476Z,46.39
2022-10-06T05:31:18.525Z,45.83
2022-10-06T05:32:18.473Z,44.81
2022-10-06T05:33:18.443Z,43.51
2022-10-06T05:34:18.435Z,42.46
2022-10-06T05:35:18.420Z,41.66
2022-10-06T05:36:18.441Z,41.05
2022-10-06T05:37:18.419Z,40.77
2022-10-06T05:38:18.387Z,40.34
2022-10-06T05:39:18.378Z,40.26
2022-10-06T05:40:18.378Z,39.99
2022-10-06T05:41:18.349Z,39.43
2022-10-06T05:42:18.357Z,38.96
2022-10-06T05:43:18.334Z,38.85
2022-10-06T05:44:18.315Z,38.67
2022-10-06T05:45:18.307Z,38.49
2022-10-06T05:46:18.323Z,38.04
2022-10-06T05:47:18.303Z,37.67
2022-10-06T05:48:18.277Z,36.27
2022-10-06T05:49:18.262Z,35.56
2022-10-06T05:50:19.540Z,35.12
2022-10-06T05:51:18.245Z,34.63
2022-10-06T05:52:18.225Z,34.01
2022-10-06T05:53:18.237Z,33.37
2022-10-06T05:54:18.196Z,32.59
2022-10-06T05:55:18.195Z,31.40
2022-10-06T05:56:18.179Z,30.31
2022-10-06T05:57:18.175Z,29.44
2022-10-06T05:58:18.679Z,28.39
2022-10-06T05:59:18.168Z,27.30
2022-10-06T06:00:18.136Z,26.41
2022-10-06T06:01:18.177Z,25.56
2022-10-06T06:02:18.222Z,24.78
2022-10-06T06:03:18.104Z,24.01
2022-10-06T06:04:18.096Z,23.35
2022-10-06T06:05:18.090Z,22.82
2022-10-06T06:06:18.068Z,22.26
2022-10-06T06:07:18.056Z,21.91
2022-10-06T06:08:18.049Z,21.55
2022-10-06T06:09:18.065Z,21.25
2022-10-06T06:10:18.028Z,20.97
2022-10-06T06:11:18.010Z,20.73
2022-10-06T06:12:17.996Z,20.52
2022-10-06T06:13:17.988Z,20.36
2022-10-06T06:14:17.991Z,20.19
2022-10-06T06:15:17.962Z,20.09
2022-10-06T06:16:17.996Z,20.00
2022-10-06T06:17:17.950Z,19.96
2022-10-06T06:18:17.932Z,19.88
2022-10-06T06:19:17.940Z,19.86
2022-10-06T06:20:17.918Z,19.98
2022-10-06T06:21:17.901Z,20.07
2022-10-06T06:22:17.889Z,20.17
2022-10-06T06:23:17.885Z,20.40
2022-10-06T06:24:17.849Z,20.87
2022-10-06T06:25:17.892Z,21.31
2022-10-06T06:26:17.829Z,22.05
2022-10-06T06:27:17.830Z,22.92
2022-10-06T06:28:17.840Z,23.84
2022-10-06T06:29:17.809Z,24.60
2022-10-06T06:30:17.812Z,25.27
2022-10-06T06:31:20.296Z,26.05
2022-10-06T06:32:17.759Z,26.80
2022-10-06T06:33:17.759Z,27.39
2022-10-06T06:34:17.740Z,27.77
2022-10-06T06:35:17.750Z,27.77
2022-10-06T06:36:17.733Z,27.99
2022-10-06T06:37:17.713Z,28.01
2022-10-06T06:38:17.696Z,27.75
2022-10-06T06:39:17.701Z,27.57
2022-10-06T06:40:17.735Z,27.35
2022-10-06T06:41:17.678Z,27.37
2022-10-06T06:42:17.662Z,27.48
2022-10-06T06:43:17.650Z,27.48
2022-10-06T06:44:17.630Z,27.20
2022-10-06T06:45:17.635Z,27.21
2022-10-06T06:46:17.729Z,27.48
2022-10-06T06:47:18.011Z,27.48
2022-10-06T06:48:17.605Z,27.70
2022-10-06T06:49:17.586Z,27.66
2022-10-06T06:50:17.593Z,28.26
2022-10-06T06:51:17.565Z,28.68
2022-10-06T06:52:17.540Z,29.20
2022-10-06T06:53:17.532Z,30.44
2022-10-06T06:54:17.530Z,31.97
2022-10-06T06:55:17.514Z,34.01
2022-10-06T06:56:17.536Z,35.84
2022-10-06T06:57:17.487Z,37.70
2022-10-06T06:58:17.492Z,39.58
2022-10-06T06:59:17.463Z,41.57
2022-10-06T07:00:17.455Z,43.87
2022-10-06T07:01:17.516Z,46.28
2022-10-06T07:02:17.512Z,47.95
2022-10-06T07:03:32.805Z,49.44
2022-10-06T07:04:18.413Z,50.82
2022-10-06T07:05:17.395Z,52.14
2022-10-06T07:06:17.392Z,54.22
2022-10-06T07:07:17.388Z,56.60
2022-10-06T07:08:17.363Z,59.15
2022-10-06T07:09:17.343Z,61.30
2022-10-06T07:10:17.344Z,63.34
2022-10-06T07:11:17.322Z,65.15
2022-10-06T07:12:17.336Z,67.67
2022-10-06T07:13:17.419Z,69.23
2022-10-06T07:14:17.296Z,70.45
2022-10-06T07:15:17.283Z,71.71
2022-10-06T07:16:17.299Z,70.04
2022-10-06T07:17:17.256Z,66.92
2022-10-06T07:18:17.274Z,64.21
2022-10-06T07:19:20.179Z,61.48
2022-10-06T07:20:18.225Z,58.69
2022-10-06T07:21:17.205Z,55.85
2022-10-06T07:22:17.193Z,53.47
2022-10-06T07:23:17.181Z,51.44
2022-10-06T07:24:17.197Z,49.12
2022-10-06T07:25:19.440Z,47.38
2022-10-06T07:26:17.155Z,46.08
2022-10-06T07:27:17.148Z,45.29
2022-10-06T07:28:17.198Z,45.00
2022-10-06T07:29:17.128Z,44.15
2022-10-06T07:30:17.123Z,43.28
2022-10-06T07:31:17.131Z,42.93
2022-10-06T07:32:17.097Z,42.58
2022-10-06T07:33:17.068Z,42.20
2022-10-06T07:34:17.069Z,41.53
2022-10-06T07:35:17.049Z,41.25
2022-10-06T07:36:17.057Z,41.21
2022-10-06T07:37:17.027Z,41.09
2022-10-06T07:38:17.007Z,41.21
2022-10-06T07:39:17.021Z,40.93
2022-10-06T07:40:17.013Z,40.07
2022-10-06T07:41:19.782Z,39.69
2022-10-06T07:42:16.972Z,38.88
2022-10-06T07:43:16.952Z,38.01
2022-10-06T07:44:16.950Z,36.68
2022-10-06T07:45:16.934Z,36.91
2022-10-06T07:46:17.002Z,37.17
2022-10-06T07:47:16.912Z,37.97
2022-10-06T07:48:16.902Z,37.77
2022-10-06T07:49:16.888Z,38.04
2022-10-06T07:50:16.879Z,39.06
2022-10-06T07:51:16.880Z,43.74
2022-10-06T07:52:16.860Z,47.43
2022-10-06T07:53:16.839Z,52.11
2022-10-06T07:54:16.836Z,56.79
2022-10-06T07:55:16.814Z,60.95
2022-10-06T07:56:16.831Z,64.11
2022-10-06T07:57:16.810Z,65.36
2022-10-06T07:58:16.804Z,67.24
2022-10-06T07:59:18.725Z,68.00
2022-10-06T08:00:16.877Z,68.55
2022-10-06T08:01:16.794Z,68.33
2022-10-06T08:02:16.782Z,65.97
2022-10-06T08:03:16.784Z,61.98
2022-10-06T08:04:16.709Z,59.86
2022-10-06T08:05:16.703Z,60.82
2022-10-06T08:06:16.686Z,62.63
2022-10-06T08:07:16.689Z,63.91
2022-10-06T08:08:16.683Z,65.71
2022-10-06T08:09:16.657Z,72.33
2022-10-06T08:10:16.652Z,80.04
2022-10-06T08:11:16.621Z,87.54
2022-10-06T08:12:16.650Z,94.53
2022-10-06T08:13:16.614Z,100.61
2022-10-06T08:14:16.614Z,109.96
2022-10-06T08:15:16.609Z,121.48
2022-10-06T08:16:16.631Z,126.22
2022-10-06T08:17:16.595Z,134.61
2022-10-06T08:18:33.696Z,144.93
2022-10-06T08:19:17.555Z,153.96
2022-10-06T08:20:16.574Z,161.50
2022-10-06T08:21:16.537Z,169.82
2022-10-06T08:22:16.552Z,174.77
2022-10-06T08:23:16.515Z,183.14
2022-10-06T08:24:16.496Z,190.14
2022-10-06T08:25:16.954Z,196.59
2022-10-06T08:26:16.466Z,205.77
2022-10-06T08:27:16.490Z,214.02
2022-10-06T08:28:16.511Z,214.58
2022-10-06T08:29:16.437Z,217.12
2022-10-06T08:30:16.465Z,224.03
2022-10-06T08:31:16.532Z,230.12
2022-10-06T08:32:16.426Z,234.86
2022-10-06T08:33:19.011Z,239.10
2022-10-06T08:34:16.429Z,242.43
2022-10-06T08:35:16.373Z,246.78
2022-10-06T08:36:16.359Z,246.04
2022-10-06T08:37:20.140Z,247.89
2022-10-06T08:38:16.376Z,251.47
2022-10-06T08:39:16.334Z,255.75
2022-10-06T08:40:16.328Z,258.76
2022-10-06T08:41:16.314Z,263.08
2022-10-06T08:42:16.297Z,267.98
2022-10-06T08:43:16.308Z,270.40
2022-10-06T08:44:16.286Z,268.86
2022-10-06T08:45:16.277Z,267.12
2022-10-06T08:46:18.739Z,265.40
2022-10-06T08:47:16.234Z,267.77
2022-10-06T08:48:16.240Z,270.17
2022-10-06T08:49:16.251Z,269.30
2022-10-06T08:50:16.208Z,274.67
2022-10-06T08:51:16.205Z,277.66
2022-10-06T08:52:16.182Z,279.07
2022-10-06T08:53:16.391Z,281.93
2022-10-06T08:54:16.180Z,281.69
2022-10-06T08:55:16.150Z,279.31
2022-10-06T08:56:16.158Z,280.73
2022-10-06T08:57:16.158Z,279.78
2022-10-06T08:58:16.137Z,279.07
2022-10-06T08:59:16.108Z,276.27
2022-10-06T09:00:19.610Z,277.20
2022-10-06T09:01:17.165Z,283.62
2022-10-06T09:02:16.095Z,289.84
2022-10-06T09:03:16.063Z,296.86
2022-10-06T09:04:16.068Z,299.55
2022-10-06T09:05:16.047Z,301.74
2022-10-06T09:06:16.024Z,300.10
2022-10-06T09:07:16.020Z,301.19
2022-10-06T09:08:16.015Z,307.64
2022-10-06T09:09:15.987Z,308.50
2022-10-06T09:10:16.025Z,311.11
2022-10-06T09:11:15.986Z,309.66
2022-10-06T09:12:15.955Z,310.53
2022-10-06T09:13:20.957Z,314.37
2022-10-06T09:14:16.975Z,317.39
2022-10-06T09:15:15.948Z,318.61
2022-10-06T09:16:15.963Z,322.34
2022-10-06T09:17:15.910Z,321.08
2022-10-06T09:18:15.887Z,322.34
2022-10-06T09:19:15.901Z,323.28
2022-10-06T09:20:15.912Z,321.71
2022-10-06T09:21:15.858Z,326.80
2022-10-06T09:22:15.864Z,326.15
2022-10-06T09:23:15.849Z,321.71
2022-10-06T09:24:15.857Z,320.15
2022-10-06T09:25:15.829Z,320.77
2022-10-06T09:26:15.817Z,323.28
2022-10-06T09:27:15.796Z,327.77
2022-10-06T09:28:15.947Z,327.77
2022-10-06T09:29:15.766Z,326.48
2022-10-06T09:30:15.767Z,328.42
2022-10-06T09:31:15.766Z,325.51
2022-10-06T09:32:15.741Z,326.80
2022-10-06T09:33:15.705Z,330.06
2022-10-06T09:34:15.720Z,338.17
2022-10-06T09:35:15.701Z,342.01
2022-10-06T09:36:15.711Z,343.79
2022-10-06T09:37:15.670Z,348.14
2022-10-06T09:38:15.668Z,349.61
2022-10-06T09:39:15.659Z,355.63
2022-10-06T09:40:15.688Z,363.85
2022-10-06T09:41:15.639Z,363.85
2022-10-06T09:42:15.620Z,361.86
2022-10-06T09:43:15.612Z,362.65
2022-10-06T09:44:15.620Z,362.65
2022-10-06T09:45:15.601Z,364.65
2022-10-06T09:46:15.635Z,367.08
2022-10-06T09:47:15.631Z,369.54
2022-10-06T09:48:15.556Z,370.37
2022-10-06T09:49:15.554Z,372.04
2022-10-06T09:50:15.547Z,371.62
2022-10-06T09:51:15.569Z,373.72
2022-10-06T09:52:15.511Z,370.79
2022-10-06T09:53:15.516Z,374.14
2022-10-06T09:54:15.497Z,376.70
2022-10-06T09:55:15.482Z,376.27
2022-10-06T09:56:15.481Z,379.56
2022-10-06T09:57:15.502Z,383.24
2022-10-06T09:58:15.473Z,379.99
2022-10-06T09:59:15.434Z,387.67
2022-10-06T10:00:15.420Z,387.67
2022-10-06T10:01:15.442Z,392.42
2022-10-06T10:02:15.400Z,389.01
2022-10-06T10:03:15.477Z,381.07
2022-10-06T10:04:22.421Z,372.88
2022-10-06T10:05:16.370Z,373.30
2022-10-06T10:06:15.355Z,370.79
2022-10-06T10:07:15.340Z,372.46
2022-10-06T10:08:15.370Z,369.95
2022-10-06T10:09:17.763Z,374.57
2022-10-06T10:10:16.324Z,380.21
2022-10-06T10:11:15.300Z,380.85
2022-10-06T10:12:15.288Z,374.57
2022-10-06T10:13:15.444Z,379.99
2022-10-06T10:14:15.401Z,374.14
2022-10-06T10:15:15.238Z,379.78
2022-10-06T10:16:15.294Z,387.89
2022-10-06T10:17:15.233Z,387.00
2022-10-06T10:18:15.237Z,387.44
2022-10-06T10:19:15.233Z,386.77
2022-10-06T10:20:15.263Z,387.89
2022-10-06T10:21:15.186Z,389.46
2022-10-06T10:22:15.168Z,386.33
2022-10-06T10:23:15.177Z,381.72
2022-10-06T10:24:15.173Z,385.00
2022-10-06T10:25:15.128Z,376.27
2022-10-06T10:26:15.145Z,371.62
2022-10-06T10:27:15.111Z,369.95
2022-10-06T10:28:15.137Z,369.13
2022-10-06T10:29:15.112Z,369.13
2022-10-06T10:30:15.107Z,371.20
2022-10-06T10:31:15.099Z,379.56
2022-10-06T10:32:15.059Z,390.82
2022-10-06T10:33:15.109Z,392.65
2022-10-06T10:34:24.022Z,394.73
2022-10-06T10:35:16.007Z,385.89
2022-10-06T10:36:15.009Z,374.57
2022-10-06T10:37:14.991Z,345.23
2022-10-06T10:38:15.114Z,347.04
2022-10-06T10:39:15.025Z,353.72
2022-10-06T10:40:14.953Z,363.05
2022-10-06T10:41:14.949Z,365.46
2022-10-06T10:42:14.927Z,369.95
2022-10-06T10:43:14.941Z,368.31
2022-10-06T10:44:14.949Z,370.37
2022-10-06T10:45:14.925Z,374.57
2022-10-06T10:46:14.927Z,380.85
2022-10-06T10:47:14.881Z,371.62
2022-10-06T10:48:14.864Z,366.67
2022-10-06T10:49:14.874Z,361.46
2022-10-06T10:50:14.856Z,358.71
2022-10-06T10:51:14.822Z,357.55
2022-10-06T10:52:14.842Z,361.86
2022-10-06T10:53:14.869Z,365.05
2022-10-06T10:54:14.814Z,382.37
2022-10-06T10:55:14.839Z,391.74
2022-10-06T10:56:14.776Z,399.66
2022-10-06T10:57:14.764Z,404.71
2022-10-06T10:58:14.753Z,404.96
2022-10-06T10:59:14.752Z,407.42
2022-10-06T11:00:14.756Z,399.18
2022-10-06T11:01:14.904Z,385.22
2022-10-06T11:02:14.735Z,373.72
2022-10-06T11:03:14.715Z,368.31
2022-10-06T11:04:14.697Z,365.05
2022-10-06T11:05:14.704Z,355.24
2022-10-06T11:06:14.655Z,352.59
2022-10-06T11:07:14.660Z,356.01
2022-10-06T11:08:14.640Z,359.89
2022-10-06T11:09:14.627Z,363.45
2022-10-06T11:10:14.636Z,373.72
2022-10-06T11:11:14.641Z,375.84
2022-10-06T11:12:14.621Z,381.07
2022-10-06T11:13:14.587Z,387.67
2022-10-06T11:14:14.777Z,391.96
2022-10-06T11:15:14.559Z,396.12
2022-10-06T11:16:14.653Z,401.57
2022-10-06T11:17:14.535Z,402.77
2022-10-06T11:18:17.159Z,403.50
2022-10-06T11:19:15.522Z,404.47
2022-10-06T11:20:14.505Z,408.90
2022-10-06T11:21:14.521Z,408.16
2022-10-06T11:22:14.488Z,408.90
2022-10-06T11:23:14.477Z,415.99
2022-10-06T11:24:14.467Z,422.80
2022-10-06T11:25:14.460Z,423.07
2022-10-06T11:26:14.466Z,425.75
2022-10-06T11:27:14.423Z,419.37
2022-10-06T11:28:14.608Z,424.94
2022-10-06T11:29:14.403Z,422.27
2022-10-06T11:30:14.388Z,420.94
2022-10-06T11:31:16.678Z,425.48
2022-10-06T11:32:15.377Z,419.89
2022-10-06T11:33:14.359Z,416.51
2022-10-06T11:34:14.353Z,403.50
2022-10-06T11:35:14.340Z,404.23
2022-10-06T11:36:14.455Z,413.18
2022-10-06T11:37:14.334Z,420.68
2022-10-06T11:38:14.302Z,428.73
2022-10-06T11:39:14.289Z,432.88
2022-10-06T11:40:14.273Z,440.54
2022-10-06T11:41:14.277Z,443.74
2022-10-06T11:42:14.285Z,449.68
2022-10-06T11:43:14.230Z,449.68
2022-10-06T11:44:14.222Z,456.71
2022-10-06T11:45:14.225Z,457.34
2022-10-06T11:46:14.237Z,461.10
2022-10-06T11:47:14.210Z,465.25
2022-10-06T11:48:14.173Z,462.69
2022-10-06T11:49:14.162Z,454.86
2022-10-06T11:50:14.171Z,451.80
2022-10-06T11:51:14.142Z,448.18
2022-10-06T11:52:14.195Z,441.70
2022-10-06T11:53:14.132Z,432.88
2022-10-06T11:54:14.103Z,441.12
2022-10-06T11:55:14.104Z,442.87
2022-10-06T11:56:14.104Z,446.99
2022-10-06T11:57:14.091Z,451.19
2022-10-06T11:59:15.061Z,451.19
2022-10-06T12:00:14.034Z,450.89
2022-10-06T12:01:14.033Z,453.63
2022-10-06T12:02:14.083Z,458.27
2022-10-06T12:03:14.102Z,458.90
2022-10-06T12:04:14.025Z,457.96
2022-10-06T12:05:45.854Z,457.65
2022-10-06T12:06:14.971Z,456.10
2022-10-06T12:07:13.964Z,457.34
2022-10-06T12:08:13.964Z,461.42
2022-10-06T12:09:13.961Z,469.81
2022-10-06T12:10:13.946Z,470.47
2022-10-06T12:11:13.931Z,467.52
2022-10-06T12:12:13.914Z,464.93
2022-10-06T12:13:40.021Z,456.10
2022-10-06T12:17:19.216Z,423.33
2022-10-06T12:18:14.838Z,414.45
2022-10-06T12:19:13.858Z,414.45
2022-10-06T12:20:13.825Z,415.22
2022-10-06T12:21:13.804Z,424.40
2022-10-06T12:22:13.796Z,426.56
2022-10-06T12:23:13.789Z,427.37
2022-10-06T12:25:13.790Z,437.39
2022-10-06T12:26:13.749Z,439.10
2022-10-06T12:27:13.741Z,437.39
2022-10-06T12:28:13.724Z,430.11
2022-10-06T12:29:13.718Z,428.19
2022-10-06T12:30:13.720Z,424.67
2022-10-06T12:31:18.115Z,439.10
2022-10-06T12:32:13.678Z,453.63
2022-10-06T12:33:13.668Z,453.02
2022-10-06T12:34:13.669Z,456.10
2022-10-06T12:35:13.680Z,458.90
2022-10-06T12:36:13.649Z,457.96
2022-10-06T12:37:13.640Z,459.84
2022-10-06T12:38:13.618Z,464.93
2022-10-06T12:39:13.761Z,463.33
2022-10-06T12:40:13.609Z,463.01